sensor_id;sensor_type;location;lat;lon;timestamp;pressure;altitude;pressure_sealevel;temperature;humidity
64644;BME280;51056;50.330;7.914;2023-07-13T00:00:59;100578.41;;;18.52;59.48
64644;BME280;51056;50.330;7.914;2023-07-13T00:04:02;100574.72;;;18.64;59.13
64644;BME280;51056;50.330;7.914;2023-07-13T00:07:07;100580.06;;;18.53;59.13
64644;BME280;51056;50.330;7.914;2023-07-13T00:10:10;100585.50;;;18.30;59.64
64644;BME280;51056;50.330;7.914;2023-07-13T00:13:13;100566.19;;;18.40;59.19
64644;BME280;51056;50.330;7.914;2023-07-13T00:16:17;100571.75;;;18.57;59.08
64644;BME280;51056;50.330;7.914;2023-07-13T00:19:21;100569.09;;;18.36;59.58
64644;BME280;51056;50.330;7.914;2023-07-13T00:22:25;100575.22;;;18.37;59.23
64644;BME280;51056;50.330;7.914;2023-07-13T00:25:28;100583.81;;;18.29;59.41
64644;BME280;51056;50.330;7.914;2023-07-13T00:28:32;100565.72;;;18.34;59.86
64644;BME280;51056;50.330;7.914;2023-07-13T00:31:36;100572.47;;;18.39;59.89
64644;BME280;51056;50.330;7.914;2023-07-13T00:34:41;100567.44;;;18.35;60.07
64644;BME280;51056;50.330;7.914;2023-07-13T00:37:45;100571.22;;;18.43;60.47
64644;BME280;51056;50.330;7.914;2023-07-13T00:40:48;100574.91;;;18.51;59.95
64644;BME280;51056;50.330;7.914;2023-07-13T00:43:51;100587.63;;;18.36;60.77
64644;BME280;51056;50.330;7.914;2023-07-13T00:46:55;100584.44;;;18.22;61.45
64644;BME280;51056;50.330;7.914;2023-07-13T00:50:02;100584.59;;;18.20;61.95
64644;BME280;51056;50.330;7.914;2023-07-13T00:53:07;100585.91;;;18.26;61.54
64644;BME280;51056;50.330;7.914;2023-07-13T00:56:11;100584.59;;;18.20;61.72
64644;BME280;51056;50.330;7.914;2023-07-13T00:59:16;100590.38;;;18.14;61.97
64644;BME280;51056;50.330;7.914;2023-07-13T01:02:24;100590.53;;;18.12;62.34
64644;BME280;51056;50.330;7.914;2023-07-13T01:05:27;100588.06;;;18.21;61.60
64644;BME280;51056;50.330;7.914;2023-07-13T01:08:30;100584.94;;;17.95;62.93
64644;BME280;51056;50.330;7.914;2023-07-13T01:11:36;100580.72;;;18.03;62.62
64644;BME280;51056;50.330;7.914;2023-07-13T01:14:39;100571.88;;;17.82;63.04
64644;BME280;51056;50.330;7.914;2023-07-13T01:17:44;100575.38;;;17.82;63.46
64644;BME280;51056;50.330;7.914;2023-07-13T01:20:53;100577.78;;;17.63;64.29
64644;BME280;51056;50.330;7.914;2023-07-13T01:23:57;100573.97;;;17.56;64.58
64644;BME280;51056;50.330;7.914;2023-07-13T01:27:00;100576.78;;;17.32;65.19
64644;BME280;51056;50.330;7.914;2023-07-13T01:30:04;100576.63;;;17.44;64.78
64644;BME280;51056;50.330;7.914;2023-07-13T01:33:17;100579.53;;;17.41;64.46
64644;BME280;51056;50.330;7.914;2023-07-13T01:36:20;100592.91;;;17.17;65.03
64644;BME280;51056;50.330;7.914;2023-07-13T01:39:25;100584.38;;;17.14;65.66
64644;BME280;51056;50.330;7.914;2023-07-13T01:42:29;100574.03;;;17.11;65.82
64644;BME280;51056;50.330;7.914;2023-07-13T01:45:32;100584.38;;;17.14;65.62
64644;BME280;51056;50.330;7.914;2023-07-13T01:48:38;100589.41;;;17.17;65.18
64644;BME280;51056;50.330;7.914;2023-07-13T01:51:41;100595.19;;;16.88;66.65
64644;BME280;51056;50.330;7.914;2023-07-13T01:54:44;100598.59;;;16.66;67.30
64644;BME280;51056;50.330;7.914;2023-07-13T01:57:48;100593.41;;;16.65;67.18
64644;BME280;51056;50.330;7.914;2023-07-13T02:00:52;100601.56;;;16.50;67.84
64644;BME280;51056;50.330;7.914;2023-07-13T02:03:55;100591.97;;;16.61;67.74
64644;BME280;51056;50.330;7.914;2023-07-13T02:06:58;100603.00;;;16.55;67.07
64644;BME280;51056;50.330;7.914;2023-07-13T02:10:02;100602.94;;;16.32;67.00
64644;BME280;51056;50.330;7.914;2023-07-13T02:13:09;100609.28;;;16.30;66.99
64644;BME280;51056;50.330;7.914;2023-07-13T02:16:12;100600.75;;;16.26;67.03
64644;BME280;51056;50.330;7.914;2023-07-13T02:19:15;100599.88;;;16.14;66.60
64644;BME280;51056;50.330;7.914;2023-07-13T02:22:18;100602.13;;;16.08;66.73
64644;BME280;51056;50.330;7.914;2023-07-13T02:25:22;100605.69;;;15.95;67.07
64644;BME280;51056;50.330;7.914;2023-07-13T02:28:26;100603.53;;;16.00;66.74
64644;BME280;51056;50.330;7.914;2023-07-13T02:31:29;100609.72;;;15.88;67.39
64644;BME280;51056;50.330;7.914;2023-07-13T02:34:33;100609.09;;;15.85;67.80
64644;BME280;51056;50.330;7.914;2023-07-13T02:37:36;100612.47;;;15.87;68.10
64644;BME280;51056;50.330;7.914;2023-07-13T02:40:46;100614.81;;;15.78;68.47
64644;BME280;51056;50.330;7.914;2023-07-13T02:43:49;100613.97;;;15.78;68.62
64644;BME280;51056;50.330;7.914;2023-07-13T02:46:52;100622.41;;;15.83;68.66
64644;BME280;51056;50.330;7.914;2023-07-13T02:49:55;100616.00;;;15.74;68.17
64644;BME280;51056;50.330;7.914;2023-07-13T02:53:00;100611.47;;;15.64;68.08
64644;BME280;51056;50.330;7.914;2023-07-13T02:56:07;100617.19;;;15.57;68.83
64644;BME280;51056;50.330;7.914;2023-07-13T02:59:10;100615.66;;;15.66;68.80
64644;BME280;51056;50.330;7.914;2023-07-13T03:02:14;100621.19;;;15.50;69.10
64644;BME280;51056;50.330;7.914;2023-07-13T03:05:17;100625.56;;;15.39;69.39
64644;BME280;51056;50.330;7.914;2023-07-13T03:08:26;100629.13;;;15.38;69.66
64644;BME280;51056;50.330;7.914;2023-07-13T03:11:32;100625.03;;;15.21;70.50
64644;BME280;51056;50.330;7.914;2023-07-13T03:14:51;100627.91;;;15.18;70.11
64644;BME280;51056;50.330;7.914;2023-07-13T03:17:54;100639.81;;;15.10;70.32
64644;BME280;51056;50.330;7.914;2023-07-13T03:20:58;100637.94;;;15.13;70.52
64644;BME280;51056;50.330;7.914;2023-07-13T03:24:02;100637.47;;;15.19;70.69
64644;BME280;51056;50.330;7.914;2023-07-13T03:27:06;100633.28;;;15.16;70.75
64644;BME280;51056;50.330;7.914;2023-07-13T03:30:14;100632.19;;;15.19;70.67
64644;BME280;51056;50.330;7.914;2023-07-13T03:33:19;100645.50;;;15.17;70.56
64644;BME280;51056;50.330;7.914;2023-07-13T03:36:26;100646.56;;;15.02;70.74
64644;BME280;51056;50.330;7.914;2023-07-13T03:39:32;100645.09;;;14.98;70.74
64644;BME280;51056;50.330;7.914;2023-07-13T03:42:36;100640.44;;;15.01;70.60
64644;BME280;51056;50.330;7.914;2023-07-13T03:45:39;100640.25;;;14.92;71.36
64644;BME280;51056;50.330;7.914;2023-07-13T03:48:44;100653.72;;;14.87;72.05
64644;BME280;51056;50.330;7.914;2023-07-13T03:51:48;100654.78;;;14.84;71.30
64644;BME280;51056;50.330;7.914;2023-07-13T03:54:51;100655.63;;;14.85;71.46
64644;BME280;51056;50.330;7.914;2023-07-13T04:01:32;100664.34;;;14.73;71.48
64644;BME280;51056;50.330;7.914;2023-07-13T04:04:36;100662.53;;;14.60;72.21
64644;BME280;51056;50.330;7.914;2023-07-13T04:07:39;100664.16;;;14.49;73.12
64644;BME280;51056;50.330;7.914;2023-07-13T04:10:44;100667.56;;;14.51;73.10
64644;BME280;51056;50.330;7.914;2023-07-13T04:13:49;100670.97;;;14.65;72.80
64644;BME280;51056;50.330;7.914;2023-07-13T04:16:53;100674.56;;;14.64;72.30
64644;BME280;51056;50.330;7.914;2023-07-13T04:19:57;100664.84;;;14.65;72.55
64644;BME280;51056;50.330;7.914;2023-07-13T04:23:01;100675.78;;;14.59;72.71
64644;BME280;51056;50.330;7.914;2023-07-13T04:26:05;100677.91;;;14.67;72.53
64644;BME280;51056;50.330;7.914;2023-07-13T04:29:09;100673.84;;;15.01;69.04
64644;BME280;51056;50.330;7.914;2023-07-13T04:32:12;100677.84;;;14.81;70.99
64644;BME280;51056;50.330;7.914;2023-07-13T04:35:17;100673.63;;;14.78;70.66
64644;BME280;51056;50.330;7.914;2023-07-13T04:38:20;100671.63;;;14.82;71.24
64644;BME280;51056;50.330;7.914;2023-07-13T04:41:24;100668.44;;;15.02;69.96
64644;BME280;51056;50.330;7.914;2023-07-13T04:48:21;100672.38;;;15.09;68.80
64644;BME280;51056;50.330;7.914;2023-07-13T04:51:28;100672.38;;;15.22;67.70
64644;BME280;51056;50.330;7.914;2023-07-13T04:54:31;100672.97;;;15.39;67.48
64644;BME280;51056;50.330;7.914;2023-07-13T04:57:37;100670.88;;;15.18;67.77
64644;BME280;51056;50.330;7.914;2023-07-13T05:00:41;100661.50;;;15.01;69.42
64644;BME280;51056;50.330;7.914;2023-07-13T05:03:50;100673.41;;;15.20;69.56
64644;BME280;51056;50.330;7.914;2023-07-13T05:06:53;100656.88;;;15.18;69.07
64644;BME280;51056;50.330;7.914;2023-07-13T05:10:24;100662.06;;;15.06;68.92
64644;BME280;51056;50.330;7.914;2023-07-13T05:14:01;100658.88;;;15.27;68.21
64644;BME280;51056;50.330;7.914;2023-07-13T05:18:21;100663.06;;;15.42;67.85
64644;BME280;51056;50.330;7.914;2023-07-13T05:21:40;100661.91;;;15.46;68.13
64644;BME280;51056;50.330;7.914;2023-07-13T05:24:44;100663.66;;;15.58;67.53
64644;BME280;51056;50.330;7.914;2023-07-13T05:27:53;100671.44;;;15.73;68.46
64644;BME280;51056;50.330;7.914;2023-07-13T05:30:56;100668.56;;;15.89;68.34
64644;BME280;51056;50.330;7.914;2023-07-13T05:34:05;100665.47;;;16.43;60.71
64644;BME280;51056;50.330;7.914;2023-07-13T05:37:12;100668.34;;;16.75;58.04
64644;BME280;51056;50.330;7.914;2023-07-13T05:40:17;100661.69;;;17.05;57.05
64644;BME280;51056;50.330;7.914;2023-07-13T05:43:21;100667.47;;;17.32;56.10
64644;BME280;51056;50.330;7.914;2023-07-13T05:46:25;100670.34;;;17.40;55.64
64644;BME280;51056;50.330;7.914;2023-07-13T05:49:29;100668.56;;;17.52;55.20
64644;BME280;51056;50.330;7.914;2023-07-13T05:52:33;100663.75;;;17.46;55.10
64644;BME280;51056;50.330;7.914;2023-07-13T05:55:44;100674.09;;;17.49;54.80
64644;BME280;51056;50.330;7.914;2023-07-13T05:58:50;100673.22;;;17.60;54.58
64644;BME280;51056;50.330;7.914;2023-07-13T06:01:53;100675.28;;;17.56;54.27
64644;BME280;51056;50.330;7.914;2023-07-13T06:04:57;100681.50;;;17.66;54.24
64644;BME280;51056;50.330;7.914;2023-07-13T06:08:00;100679.69;;;17.67;54.15
64644;BME280;51056;50.330;7.914;2023-07-13T06:11:14;100681.41;;;17.57;54.49
64644;BME280;51056;50.330;7.914;2023-07-13T06:14:18;100689.59;;;17.42;54.77
64644;BME280;51056;50.330;7.914;2023-07-13T06:17:22;100683.81;;;17.60;54.46
64644;BME280;51056;50.330;7.914;2023-07-13T06:20:25;100693.50;;;17.71;54.33
64644;BME280;51056;50.330;7.914;2023-07-13T06:23:28;100689.22;;;17.81;54.13
64644;BME280;51056;50.330;7.914;2023-07-13T06:26:32;100692.19;;;17.76;53.90
64644;BME280;51056;50.330;7.914;2023-07-13T06:29:35;100704.50;;;17.77;53.62
64644;BME280;51056;50.330;7.914;2023-07-13T06:32:38;100688.13;;;17.83;53.60
64644;BME280;51056;50.330;7.914;2023-07-13T06:35:42;100689.53;;;18.10;53.12
64644;BME280;51056;50.330;7.914;2023-07-13T06:38:45;100690.63;;;17.96;52.96
64644;BME280;51056;50.330;7.914;2023-07-13T06:41:48;100701.22;;;17.96;53.23
64644;BME280;51056;50.330;7.914;2023-07-13T06:45:02;100696.97;;;18.16;52.48
64644;BME280;51056;50.330;7.914;2023-07-13T06:48:05;100713.28;;;18.32;52.14
64644;BME280;51056;50.330;7.914;2023-07-13T06:51:08;100708.69;;;18.34;52.19
64644;BME280;51056;50.330;7.914;2023-07-13T06:54:13;100711.59;;;18.31;52.03
64644;BME280;51056;50.330;7.914;2023-07-13T06:57:17;100707.34;;;18.40;51.35
64644;BME280;51056;50.330;7.914;2023-07-13T07:00:20;100710.22;;;18.48;50.88
64644;BME280;51056;50.330;7.914;2023-07-13T07:03:25;100698.78;;;18.48;50.62
64644;BME280;51056;50.330;7.914;2023-07-13T07:06:33;100696.47;;;18.54;50.58
64644;BME280;51056;50.330;7.914;2023-07-13T07:09:36;100694.97;;;18.62;50.76
64644;BME280;51056;50.330;7.914;2023-07-13T07:12:39;100701.03;;;18.85;50.77
64644;BME280;51056;50.330;7.914;2023-07-13T07:15:43;100705.03;;;18.79;50.30
64644;BME280;51056;50.330;7.914;2023-07-13T07:18:47;100704.66;;;18.84;50.20
64644;BME280;51056;50.330;7.914;2023-07-13T07:21:50;100712.00;;;19.01;49.70
64644;BME280;51056;50.330;7.914;2023-07-13T07:24:53;100709.56;;;19.09;49.24
64644;BME280;51056;50.330;7.914;2023-07-13T07:27:57;100709.81;;;19.06;49.56
64644;BME280;51056;50.330;7.914;2023-07-13T07:31:05;100704.78;;;19.03;49.46
64644;BME280;51056;50.330;7.914;2023-07-13T07:34:09;100721.31;;;19.16;48.52
64644;BME280;51056;50.330;7.914;2023-07-13T07:37:13;100710.59;;;19.18;48.63
64644;BME280;51056;50.330;7.914;2023-07-13T07:40:18;100714.59;;;19.43;48.06
64644;BME280;51056;50.330;7.914;2023-07-13T07:43:23;100711.31;;;19.29;47.51
64644;BME280;51056;50.330;7.914;2023-07-13T07:46:26;100727.06;;;19.21;48.19
64644;BME280;51056;50.330;7.914;2023-07-13T07:49:31;100720.78;;;19.22;48.30
64644;BME280;51056;50.330;7.914;2023-07-13T07:52:34;100725.38;;;19.20;48.42
64644;BME280;51056;50.330;7.914;2023-07-13T07:55:37;100724.59;;;19.29;47.46
64644;BME280;51056;50.330;7.914;2023-07-13T07:58:41;100715.69;;;19.31;47.18
64644;BME280;51056;50.330;7.914;2023-07-13T08:01:44;100718.06;;;19.34;46.81
64644;BME280;51056;50.330;7.914;2023-07-13T08:04:49;100718.75;;;19.36;46.84
64644;BME280;51056;50.330;7.914;2023-07-13T08:07:52;100724.94;;;19.46;46.62
64644;BME280;51056;50.330;7.914;2023-07-13T08:10:55;100721.34;;;19.47;46.24
64644;BME280;51056;50.330;7.914;2023-07-13T08:13:58;100723.50;;;19.63;45.87
64644;BME280;51056;50.330;7.914;2023-07-13T08:17:02;100719.09;;;19.73;46.09
64644;BME280;51056;50.330;7.914;2023-07-13T08:20:06;100711.88;;;19.85;45.00
64644;BME280;51056;50.330;7.914;2023-07-13T08:23:10;100711.75;;;19.96;45.00
64644;BME280;51056;50.330;7.914;2023-07-13T08:26:18;100712.19;;;20.01;44.91
64644;BME280;51056;50.330;7.914;2023-07-13T08:29:22;100707.59;;;20.23;44.19
64644;BME280;51056;50.330;7.914;2023-07-13T08:32:26;100705.81;;;20.23;44.15
64644;BME280;51056;50.330;7.914;2023-07-13T08:35:32;100707.19;;;20.37;43.32
64644;BME280;51056;50.330;7.914;2023-07-13T08:38:44;100707.31;;;20.45;43.28
64644;BME280;51056;50.330;7.914;2023-07-13T08:41:52;100706.38;;;20.46;43.42
64644;BME280;51056;50.330;7.914;2023-07-13T08:48:25;100701.63;;;20.69;42.23
64644;BME280;51056;50.330;7.914;2023-07-13T08:54:44;100706.94;;;20.50;42.71
64644;BME280;51056;50.330;7.914;2023-07-13T09:15:38;100696.41;;;21.06;41.69
64644;BME280;51056;50.330;7.914;2023-07-13T09:18:42;100694.25;;;21.20;41.64
64644;BME280;51056;50.330;7.914;2023-07-13T09:21:48;100695.06;;;21.30;41.58
64644;BME280;51056;50.330;7.914;2023-07-13T09:25:00;100696.97;;;21.47;42.04
64644;BME280;51056;50.330;7.914;2023-07-13T09:28:12;100693.78;;;21.34;41.68
64644;BME280;51056;50.330;7.914;2023-07-13T09:31:26;100692.09;;;21.33;41.73
64644;BME280;51056;50.330;7.914;2023-07-13T09:34:33;100686.41;;;21.18;41.77
64644;BME280;51056;50.330;7.914;2023-07-13T09:37:37;100688.06;;;21.29;41.70
64644;BME280;51056;50.330;7.914;2023-07-13T09:44:55;100702.34;;;21.38;41.42
64644;BME280;51056;50.330;7.914;2023-07-13T09:48:10;100685.53;;;21.27;41.23
64644;BME280;51056;50.330;7.914;2023-07-13T09:51:14;100677.44;;;21.39;41.48
64644;BME280;51056;50.330;7.914;2023-07-13T09:54:20;100677.00;;;21.71;40.79
64644;BME280;51056;50.330;7.914;2023-07-13T09:57:25;100673.97;;;21.83;40.64
64644;BME280;51056;50.330;7.914;2023-07-13T10:00:29;100670.47;;;21.83;41.28
64644;BME280;51056;50.330;7.914;2023-07-13T10:03:34;100678.25;;;21.94;40.09
64644;BME280;51056;50.330;7.914;2023-07-13T10:06:42;100671.53;;;22.18;40.13
64644;BME280;51056;50.330;7.914;2023-07-13T10:10:21;100668.94;;;22.44;38.95
64644;BME280;51056;50.330;7.914;2023-07-13T10:13:37;100673.44;;;22.43;39.31
64644;BME280;51056;50.330;7.914;2023-07-13T10:16:47;100673.66;;;22.32;39.88
64644;BME280;51056;50.330;7.914;2023-07-13T10:19:55;100668.34;;;22.04;38.94
64644;BME280;51056;50.330;7.914;2023-07-13T10:23:05;100674.19;;;22.18;38.45
64644;BME280;51056;50.330;7.914;2023-07-13T10:26:21;100671.94;;;22.13;38.56
64644;BME280;51056;50.330;7.914;2023-07-13T10:29:28;100670.13;;;22.14;38.34
64644;BME280;51056;50.330;7.914;2023-07-13T10:32:33;100674.97;;;22.28;38.37
64644;BME280;51056;50.330;7.914;2023-07-13T10:35:37;100670.00;;;22.33;37.93
64644;BME280;51056;50.330;7.914;2023-07-13T10:38:43;100677.41;;;22.21;38.26
64644;BME280;51056;50.330;7.914;2023-07-13T10:41:53;100672.09;;;22.12;38.03
64644;BME280;51056;50.330;7.914;2023-07-13T10:45:00;100671.41;;;22.10;37.79
64644;BME280;51056;50.330;7.914;2023-07-13T10:48:04;100668.06;;;22.08;37.76
64644;BME280;51056;50.330;7.914;2023-07-13T10:51:10;100668.56;;;22.21;37.78
64644;BME280;51056;50.330;7.914;2023-07-13T10:54:26;100678.53;;;22.37;37.72
64644;BME280;51056;50.330;7.914;2023-07-13T10:57:42;100674.19;;;22.18;37.29
64644;BME280;51056;50.330;7.914;2023-07-13T11:04:03;100684.09;;;22.43;37.21
64644;BME280;51056;50.330;7.914;2023-07-13T11:11:01;100679.97;;;22.31;38.01
64644;BME280;51056;50.330;7.914;2023-07-13T11:17:53;100675.09;;;22.44;37.85
64644;BME280;51056;50.330;7.914;2023-07-13T11:21:22;100665.91;;;22.65;37.50
64644;BME280;51056;50.330;7.914;2023-07-13T11:24:57;100674.31;;;22.70;36.42
64644;BME280;51056;50.330;7.914;2023-07-13T11:31:22;100661.91;;;22.61;36.21
64644;BME280;51056;50.330;7.914;2023-07-13T11:34:38;100670.91;;;22.60;36.38
64644;BME280;51056;50.330;7.914;2023-07-13T11:37:44;100684.13;;;22.69;36.39
64644;BME280;51056;50.330;7.914;2023-07-13T11:40:51;100675.56;;;22.84;36.16
64644;BME280;51056;50.330;7.914;2023-07-13T11:47:14;100675.03;;;22.80;35.03
64644;BME280;51056;50.330;7.914;2023-07-13T11:50:23;100674.78;;;22.91;35.04
64644;BME280;51056;50.330;7.914;2023-07-13T11:53:35;100682.34;;;22.96;35.15
64644;BME280;51056;50.330;7.914;2023-07-13T11:56:45;100686.97;;;22.94;35.00
64644;BME280;51056;50.330;7.914;2023-07-13T11:59:51;100710.13;;;23.11;34.77
64644;BME280;51056;50.330;7.914;2023-07-13T12:02:57;100691.25;;;23.05;34.80
64644;BME280;51056;50.330;7.914;2023-07-13T12:06:24;100685.84;;;22.96;35.32
64644;BME280;51056;50.330;7.914;2023-07-13T12:09:33;100684.88;;;22.97;35.40
64644;BME280;51056;50.330;7.914;2023-07-13T12:12:40;100705.72;;;23.02;35.76
64644;BME280;51056;50.330;7.914;2023-07-13T12:15:48;100688.94;;;22.66;36.27
64644;BME280;51056;50.330;7.914;2023-07-13T12:18:53;100692.22;;;22.60;36.58
64644;BME280;51056;50.330;7.914;2023-07-13T12:21:58;100699.34;;;22.77;36.71
64644;BME280;51056;50.330;7.914;2023-07-13T12:25:02;100697.16;;;22.72;36.55
64644;BME280;51056;50.330;7.914;2023-07-13T12:28:37;100698.88;;;22.82;36.62
64644;BME280;51056;50.330;7.914;2023-07-13T12:31:44;100698.34;;;22.78;37.12
64644;BME280;51056;50.330;7.914;2023-07-13T12:35:12;100708.38;;;22.84;36.65
64644;BME280;51056;50.330;7.914;2023-07-13T12:38:18;100704.44;;;22.88;36.66
64644;BME280;51056;50.330;7.914;2023-07-13T12:41:26;100711.91;;;22.85;36.75
64644;BME280;51056;50.330;7.914;2023-07-13T12:44:31;100718.44;;;22.90;36.46
64644;BME280;51056;50.330;7.914;2023-07-13T12:48:14;100723.16;;;22.96;36.21
64644;BME280;51056;50.330;7.914;2023-07-13T12:51:22;100723.47;;;22.93;36.58
64644;BME280;51056;50.330;7.914;2023-07-13T12:54:26;100731.97;;;22.53;36.68
64644;BME280;51056;50.330;7.914;2023-07-13T12:57:30;100722.91;;;22.64;37.14
64644;BME280;51056;50.330;7.914;2023-07-13T13:00:38;100735.59;;;22.70;36.59
64644;BME280;51056;50.330;7.914;2023-07-13T13:03:54;100726.47;;;22.55;36.76
64644;BME280;51056;50.330;7.914;2023-07-13T13:07:03;100720.00;;;22.75;35.92
64644;BME280;51056;50.330;7.914;2023-07-13T13:10:15;100726.38;;;22.64;35.42
64644;BME280;51056;50.330;7.914;2023-07-13T13:13:19;100720.31;;;22.72;35.41
64644;BME280;51056;50.330;7.914;2023-07-13T13:19:29;100723.94;;;22.71;35.53
64644;BME280;51056;50.330;7.914;2023-07-13T13:22:33;100722.50;;;22.77;35.13
64644;BME280;51056;50.330;7.914;2023-07-13T13:25:37;100725.75;;;22.88;35.40
64644;BME280;51056;50.330;7.914;2023-07-13T13:28:43;100722.25;;;23.06;35.51
64644;BME280;51056;50.330;7.914;2023-07-13T13:31:51;100723.88;;;22.98;35.29
64644;BME280;51056;50.330;7.914;2023-07-13T13:34:55;100728.72;;;23.03;35.46
64644;BME280;51056;50.330;7.914;2023-07-13T13:37:59;100737.88;;;23.01;34.94
64644;BME280;51056;50.330;7.914;2023-07-13T13:41:20;100720.38;;;22.98;34.64
64644;BME280;51056;50.330;7.914;2023-07-13T13:44:39;100725.28;;;22.93;35.00
64644;BME280;51056;50.330;7.914;2023-07-13T13:47:44;100729.91;;;23.01;34.67
64644;BME280;51056;50.330;7.914;2023-07-13T13:50:48;100725.75;;;23.06;34.84
64644;BME280;51056;50.330;7.914;2023-07-13T13:53:57;100725.47;;;22.91;34.77
64644;BME280;51056;50.330;7.914;2023-07-13T13:57:01;100732.75;;;22.89;34.91
64644;BME280;51056;50.330;7.914;2023-07-13T14:00:06;100738.25;;;22.88;35.65
64644;BME280;51056;50.330;7.914;2023-07-13T14:03:18;100740.47;;;22.74;35.46
64644;BME280;51056;50.330;7.914;2023-07-13T14:06:35;100742.16;;;22.75;35.45
64644;BME280;51056;50.330;7.914;2023-07-13T14:09:39;100740.06;;;22.87;35.59
64644;BME280;51056;50.330;7.914;2023-07-13T14:12:44;100743.44;;;22.89;35.23
64644;BME280;51056;50.330;7.914;2023-07-13T14:15:48;100736.22;;;22.82;35.36
64644;BME280;51056;50.330;7.914;2023-07-13T14:18:52;100747.09;;;22.88;35.03
64644;BME280;51056;50.330;7.914;2023-07-13T14:21:55;100739.34;;;22.95;34.53
64644;BME280;51056;50.330;7.914;2023-07-13T14:24:59;100737.06;;;23.26;33.39
64644;BME280;51056;50.330;7.914;2023-07-13T14:28:17;100740.44;;;23.36;33.82
64644;BME280;51056;50.330;7.914;2023-07-13T14:31:23;100740.78;;;23.67;32.75
64644;BME280;51056;50.330;7.914;2023-07-13T14:34:27;100738.94;;;23.34;33.20
64644;BME280;51056;50.330;7.914;2023-07-13T14:37:31;100744.72;;;23.29;33.61
64644;BME280;51056;50.330;7.914;2023-07-13T14:40:35;100749.34;;;23.71;33.10
64644;BME280;51056;50.330;7.914;2023-07-13T14:43:39;100742.41;;;25.19;30.33
64644;BME280;51056;50.330;7.914;2023-07-13T14:46:44;100720.75;;;27.07;27.82
64644;BME280;51056;50.330;7.914;2023-07-13T14:49:48;100721.84;;;26.98;27.79
64644;BME280;51056;50.330;7.914;2023-07-13T14:52:51;100716.63;;;25.73;29.59
64644;BME280;51056;50.330;7.914;2023-07-13T14:55:55;100723.50;;;24.88;30.96
64644;BME280;51056;50.330;7.914;2023-07-13T14:59:02;100727.88;;;24.48;31.44
64644;BME280;51056;50.330;7.914;2023-07-13T15:02:19;100724.00;;;24.42;31.96
64644;BME280;51056;50.330;7.914;2023-07-13T15:05:27;100727.53;;;24.67;31.62
64644;BME280;51056;50.330;7.914;2023-07-13T15:08:38;100719.28;;;24.28;32.46
64644;BME280;51056;50.330;7.914;2023-07-13T15:11:43;100714.81;;;25.02;31.94
64644;BME280;51056;50.330;7.914;2023-07-13T15:14:49;100712.06;;;28.16;27.55
64644;BME280;51056;50.330;7.914;2023-07-13T15:17:53;100714.00;;;26.05;29.91
64644;BME280;51056;50.330;7.914;2023-07-13T15:20:59;100705.22;;;26.65;29.43
64644;BME280;51056;50.330;7.914;2023-07-13T15:24:08;100713.09;;;27.64;27.48
64644;BME280;51056;50.330;7.914;2023-07-13T15:27:14;100716.16;;;27.16;28.25
64644;BME280;51056;50.330;7.914;2023-07-13T15:30:22;100707.53;;;27.06;27.82
64644;BME280;51056;50.330;7.914;2023-07-13T15:33:27;100712.09;;;25.74;29.91
64644;BME280;51056;50.330;7.914;2023-07-13T15:36:31;100710.28;;;27.72;27.82
64644;BME280;51056;50.330;7.914;2023-07-13T15:43:19;100692.28;;;29.23;24.83
64644;BME280;51056;50.330;7.914;2023-07-13T15:46:23;100705.78;;;29.64;24.76
64644;BME280;51056;50.330;7.914;2023-07-13T15:49:34;100703.94;;;27.13;28.21
64644;BME280;51056;50.330;7.914;2023-07-13T15:52:38;100711.03;;;26.46;29.06
64644;BME280;51056;50.330;7.914;2023-07-13T15:55:44;100696.56;;;28.54;25.83
64644;BME280;51056;50.330;7.914;2023-07-13T15:58:50;100692.53;;;30.44;23.65
64644;BME280;51056;50.330;7.914;2023-07-13T16:01:53;100695.75;;;29.10;24.76
64644;BME280;51056;50.330;7.914;2023-07-13T16:04:56;100691.94;;;30.28;23.55
64644;BME280;51056;50.330;7.914;2023-07-13T16:08:00;100694.00;;;29.65;24.42
64644;BME280;51056;50.330;7.914;2023-07-13T16:11:16;100685.09;;;30.46;23.32
64644;BME280;51056;50.330;7.914;2023-07-13T16:14:24;100687.78;;;30.32;23.56
64644;BME280;51056;50.330;7.914;2023-07-13T16:17:29;100706.41;;;27.00;27.54
64644;BME280;51056;50.330;7.914;2023-07-13T16:20:33;100699.75;;;25.65;29.55
64644;BME280;51056;50.330;7.914;2023-07-13T16:24:08;100690.81;;;25.89;29.87
64644;BME280;51056;50.330;7.914;2023-07-13T16:27:17;100693.03;;;25.29;30.46
64644;BME280;51056;50.330;7.914;2023-07-13T16:30:22;100691.06;;;25.15;30.67
64644;BME280;51056;50.330;7.914;2023-07-13T16:33:33;100695.91;;;25.67;30.38
64644;BME280;51056;50.330;7.914;2023-07-13T16:36:37;100690.94;;;25.56;30.43
64644;BME280;51056;50.330;7.914;2023-07-13T16:39:49;100689.16;;;25.80;29.96
64644;BME280;51056;50.330;7.914;2023-07-13T16:42:57;100680.06;;;24.69;31.39
64644;BME280;51056;50.330;7.914;2023-07-13T16:46:01;100690.41;;;24.89;31.64
64644;BME280;51056;50.330;7.914;2023-07-13T16:49:27;100697.13;;;24.76;31.59
64644;BME280;51056;50.330;7.914;2023-07-13T16:52:32;100692.63;;;24.61;31.92
64644;BME280;51056;50.330;7.914;2023-07-13T16:55:35;100707.06;;;24.17;32.36
64644;BME280;51056;50.330;7.914;2023-07-13T16:58:40;100701.06;;;24.23;32.68
64644;BME280;51056;50.330;7.914;2023-07-13T17:01:44;100696.00;;;23.96;32.66
64644;BME280;51056;50.330;7.914;2023-07-13T17:04:49;100696.00;;;23.96;32.97
64644;BME280;51056;50.330;7.914;2023-07-13T17:07:53;100695.19;;;24.03;32.77
64644;BME280;51056;50.330;7.914;2023-07-13T17:10:58;100695.47;;;23.84;32.95
64644;BME280;51056;50.330;7.914;2023-07-13T17:14:04;100692.69;;;24.18;32.77
64644;BME280;51056;50.330;7.914;2023-07-13T17:17:18;100698.03;;;24.02;33.08